MX-0111 weather

Tenosique Airport
Tenosique de Pino Suárez, Tabasco, Mexico

Public forecast

Using degrees Celsius for public forecast. Weather courtesy of forecast.io.

Closest aviation weather report (METAR) to Tenosique Airport

Closest report is Palenque International Airport, 35.1 nm (65.0 km) W. Retrieved 2019/12/09 19:47 UTC (1 hour ago):

MMPQ 091947Z 09009KT 6SM SCT050 29/22 A2976 RMK 8/100 HZY

Closest aviation forecast (TAF) to Tenosique Airport

Closest forecast is Palenque International Airport, 35.1 nm (65.0 km) W. Retrieved 2019/12/09 18:55 UTC (2 hours ago):

TAF MMPQ 091655Z 0918/1018 07006KT 6SM HZ BKN030 FM100300 14005KT 6SM HZ SCT020